www.cux-wetter.de
Wetterdaten: Mittwoch, 08.05.2013
Datum Zeit Temp. A. Feuchte A. Luftdruck Regen Wind Richtung Richtung Sonnenschein Solar Taupunkt Windchill Windben
08.05.2013 00:00 13,2 C 87 % 1013,5 hPa 0,0 l/m 16,3 km/h (3 Bft) O 90 0 min 0 W/m 11,1 C 8,6 C 16,3 km/h (3 Bft)
08.05.2013 00:14 13,0 C 87 % 1013,5 hPa 0,0 l/m 13,0 km/h (3 Bft) O 85 0 min 0 W/m 10,9 C 9,5 C 13,0 km/h (3 Bft)
08.05.2013 00:30 13,1 C 87 % 1013,5 hPa 0,0 l/m 16,0 km/h (3 Bft) O 80 0 min 0 W/m 11,0 C 8,5 C 16,0 km/h (3 Bft)
08.05.2013 00:45 13,2 C 87 % 1013,5 hPa 0,0 l/m 14,2 km/h (3 Bft) O 80 0 min 0 W/m 11,1 C 9,3 C 14,2 km/h (3 Bft)
08.05.2013 01:00 13,2 C 87 % 1013,5 hPa 0,0 l/m 12,0 km/h (2 Bft) O-SO 105 0 min 0 W/m 11,1 C 10,2 C 12,0 km/h (2 Bft)
08.05.2013 01:14 13,3 C 87 % 1012,5 hPa 0,9 l/m 1,0 km/h (0 Bft) SO 140 0 min 0 W/m 11,2 C 13,3 C 1,0 km/h (0 Bft)
08.05.2013 01:30 13,2 C 87 % 1012,5 hPa 0,0 l/m 8,9 km/h (2 Bft) O 90 0 min 0 W/m 11,1 C 11,7 C 8,9 km/h (2 Bft)
08.05.2013 01:45 13,1 C 88 % 1012,5 hPa 0,0 l/m 14,6 km/h (3 Bft) O 100 0 min 0 W/m 11,2 C 9,0 C 14,6 km/h (3 Bft)
08.05.2013 02:00 13,0 C 88 % 1012,5 hPa 0,0 l/m 9,6 km/h (2 Bft) O-SO 110 0 min 0 W/m 11,1 C 11,1 C 9,6 km/h (2 Bft)
08.05.2013 02:14 13,0 C 88 % 1012,5 hPa 0,0 l/m 15,1 km/h (3 Bft) SO 135 0 min 0 W/m 11,1 C 8,7 C 15,1 km/h (3 Bft)
08.05.2013 02:30 13,0 C 88 % 1012,5 hPa 0,0 l/m 10,6 km/h (2 Bft) O-SO 105 0 min 0 W/m 11,1 C 10,6 C 10,6 km/h (2 Bft)
08.05.2013 02:45 13,0 C 88 % 1011,5 hPa 0,0 l/m 9,9 km/h (2 Bft) O 95 0 min 0 W/m 11,1 C 11,0 C 9,9 km/h (2 Bft)
08.05.2013 03:00 13,0 C 88 % 1011,5 hPa 0,0 l/m 15,1 km/h (3 Bft) O-SO 105 0 min 0 W/m 11,1 C 8,7 C 15,1 km/h (3 Bft)
08.05.2013 03:14 13,0 C 88 % 1011,5 hPa 0,0 l/m 1,8 km/h (1 Bft) O 100 0 min 0 W/m 11,1 C 13,0 C 1,8 km/h (1 Bft)
08.05.2013 03:30 13,0 C 88 % 1011,5 hPa 0,0 l/m 1,3 km/h (1 Bft) SO 130 0 min 0 W/m 11,1 C 13,0 C 1,3 km/h (1 Bft)
08.05.2013 03:45 13,0 C 88 % 1011,5 hPa 0,0 l/m 8,9 km/h (2 Bft) SO 145 0 min 0 W/m 11,1 C 11,5 C 8,9 km/h (2 Bft)
08.05.2013 04:00 13,1 C 88 % 1011,5 hPa 0,0 l/m 10,9 km/h (2 Bft) O-SO 120 0 min 0 W/m 11,2 C 10,6 C 10,9 km/h (2 Bft)
08.05.2013 04:14 13,1 C 88 % 1011,5 hPa 0,0 l/m 10,0 km/h (2 Bft) SO 125 0 min 0 W/m 11,2 C 11,0 C 10,0 km/h (2 Bft)
08.05.2013 04:30 13,0 C 88 % 1011,5 hPa 0,0 l/m 9,6 km/h (2 Bft) SO 135 0 min 0 W/m 11,1 C 11,1 C 9,6 km/h (2 Bft)
08.05.2013 04:45 13,0 C 88 % 1010,5 hPa 0,0 l/m 11,4 km/h (2 Bft) SO 125 0 min 0 W/m 11,1 C 10,2 C 11,4 km/h (2 Bft)
08.05.2013 05:00 13,1 C 88 % 1010,5 hPa 0,0 l/m 9,4 km/h (2 Bft) SO 145 0 min 0 W/m 11,2 C 11,3 C 9,4 km/h (2 Bft)
08.05.2013 05:14 13,2 C 88 % 1010,5 hPa 0,0 l/m 10,8 km/h (2 Bft) SO 135 0 min 0 W/m 11,3 C 10,7 C 10,8 km/h (2 Bft)
08.05.2013 05:30 13,2 C 88 % 1010,5 hPa 0,0 l/m 8,0 km/h (2 Bft) SO 125 0 min 0 W/m 11,3 C 12,2 C 8,0 km/h (2 Bft)
08.05.2013 05:45 13,2 C 89 % 1010,5 hPa 0,0 l/m 11,5 km/h (2 Bft) S-SO 155 0 min 0 W/m 11,4 C 10,4 C 11,5 km/h (2 Bft)
08.05.2013 06:00 13,2 C 89 % 1010,5 hPa 0,0 l/m 13,2 km/h (3 Bft) S 170 0 min 0 W/m 11,4 C 9,7 C 13,2 km/h (3 Bft)
08.05.2013 06:15 13,2 C 89 % 1010,5 hPa 0,0 l/m 12,1 km/h (2 Bft) S 170 0 min 0 W/m 11,4 C 10,2 C 12,1 km/h (2 Bft)
08.05.2013 06:30 13,3 C 89 % 1010,5 hPa 0,0 l/m 10,9 km/h (2 Bft) S 190 0 min 0 W/m 11,5 C 10,8 C 10,9 km/h (2 Bft)
08.05.2013 06:45 13,3 C 89 % 1010,5 hPa 0,0 l/m 12,5 km/h (2 Bft) S 180 0 min 0 W/m 11,5 C 10,1 C 12,5 km/h (2 Bft)
08.05.2013 07:00 13,5 C 89 % 1009,5 hPa 0,0 l/m 11,4 km/h (2 Bft) S 175 0 min 0 W/m 11,7 C 10,8 C 11,4 km/h (2 Bft)
08.05.2013 07:15 13,5 C 90 % 1010,5 hPa 0,0 l/m 12,6 km/h (3 Bft) S 180 0 min 0 W/m 11,9 C 10,3 C 12,6 km/h (3 Bft)
08.05.2013 07:30 13,6 C 90 % 1010,5 hPa 0,0 l/m 11,6 km/h (2 Bft) S-SW 205 0 min 0 W/m 12,0 C 10,8 C 11,6 km/h (2 Bft)
08.05.2013 07:45 13,6 C 90 % 1009,5 hPa 0,0 l/m 12,4 km/h (2 Bft) S 185 0 min 0 W/m 12,0 C 10,5 C 12,4 km/h (2 Bft)
08.05.2013 08:00 13,7 C 90 % 1009,5 hPa 0,0 l/m 11,4 km/h (2 Bft) S 170 0 min 0 W/m 12,1 C 11,0 C 11,4 km/h (2 Bft)
08.05.2013 08:15 14,0 C 90 % 1009,5 hPa 0,0 l/m 10,8 km/h (2 Bft) S-SW 195 0 min 0 W/m 12,4 C 11,6 C 10,8 km/h (2 Bft)
08.05.2013 08:30 14,3 C 91 % 1009,5 hPa 0,0 l/m 13,2 km/h (3 Bft) S 170 0 min 0 W/m 12,8 C 11,0 C 13,2 km/h (3 Bft)
08.05.2013 08:45 14,6 C 91 % 1009,5 hPa 0,0 l/m 14,3 km/h (3 Bft) S-SO 165 0 min 0 W/m 13,1 C 10,9 C 14,3 km/h (3 Bft)
08.05.2013 09:00 14,8 C 91 % 1009,5 hPa 0,0 l/m 18,0 km/h (3 Bft) S-SW 195 0 min 0 W/m 13,3 C 10,0 C 18,0 km/h (3 Bft)
08.05.2013 09:15 14,8 C 91 % 1009,5 hPa 0,0 l/m 14,9 km/h (3 Bft) S 190 0 min 0 W/m 13,3 C 11,0 C 14,9 km/h (3 Bft)
08.05.2013 09:30 15,0 C 91 % 1009,5 hPa 0,0 l/m 13,5 km/h (3 Bft) S-SW 200 0 min 0 W/m 13,5 C 11,7 C 13,5 km/h (3 Bft)
08.05.2013 09:45 15,3 C 91 % 1010,5 hPa 0,0 l/m 19,8 km/h (3 Bft) S-SW 205 0 min 0 W/m 13,8 C 10,2 C 19,8 km/h (3 Bft)
08.05.2013 10:00 15,4 C 91 % 1010,5 hPa 0,0 l/m 15,6 km/h (3 Bft) SW 225 0 min 0 W/m 13,9 C 11,5 C 15,6 km/h (3 Bft)
08.05.2013 10:15 15,6 C 90 % 1010,5 hPa 0,0 l/m 15,7 km/h (3 Bft) S-SW 205 0 min 0 W/m 14,0 C 11,7 C 15,7 km/h (3 Bft)
08.05.2013 10:30 15,7 C 90 % 1009,5 hPa 0,0 l/m 18,5 km/h (3 Bft) S 180 0 min 0 W/m 14,1 C 11,0 C 18,5 km/h (3 Bft)
08.05.2013 10:45 16,0 C 90 % 1009,5 hPa 0,0 l/m 16,4 km/h (3 Bft) S-SW 205 0 min 0 W/m 14,4 C 12,0 C 16,4 km/h (3 Bft)
08.05.2013 11:00 16,4 C 89 % 1009,5 hPa 0,0 l/m 21,6 km/h (4 Bft) S 180 0 min 0 W/m 14,6 C 11,2 C 21,6 km/h (4 Bft)
08.05.2013 11:15 17,2 C 87 % 1009,5 hPa 0,0 l/m 16,3 km/h (3 Bft) SW 215 0 min 0 W/m 15,0 C 13,5 C 16,3 km/h (3 Bft)
08.05.2013 11:30 17,5 C 85 % 1009,5 hPa 0,0 l/m 17,0 km/h (3 Bft) S-SW 210 0 min 0 W/m 14,9 C 13,7 C 17,0 km/h (3 Bft)
08.05.2013 11:45 18,3 C 83 % 1009,5 hPa 0,0 l/m 15,5 km/h (3 Bft) S-SW 200 0 min 0 W/m 15,4 C 15,1 C 15,5 km/h (3 Bft)
08.05.2013 12:00 18,7 C 81 % 1008,5 hPa 0,0 l/m 17,1 km/h (3 Bft) S-SW 205 0 min 0 W/m 15,4 C 15,2 C 17,1 km/h (3 Bft)
08.05.2013 12:15 19,1 C 78 % 1008,5 hPa 0,0 l/m 16,5 km/h (3 Bft) SW 220 0 min 0 W/m 15,2 C 15,8 C 16,5 km/h (3 Bft)
08.05.2013 12:30 18,8 C 75 % 1008,5 hPa 0,0 l/m 22,6 km/h (4 Bft) W-SW 240 0 min 0 W/m 14,3 C 14,2 C 22,6 km/h (4 Bft)
08.05.2013 12:45 18,6 C 75 % 1008,5 hPa 0,0 l/m 20,5 km/h (4 Bft) W-SW 240 0 min 0 W/m 14,1 C 14,3 C 20,5 km/h (4 Bft)
08.05.2013 13:00 20,0 C 69 % 1008,5 hPa 0,0 l/m 22,0 km/h (4 Bft) W-SW 240 0 min 0 W/m 14,1 C 15,9 C 22,0 km/h (4 Bft)
08.05.2013 13:15 19,7 C 69 % 1008,5 hPa 0,0 l/m 22,2 km/h (4 Bft) W-SW 250 0 min 0 W/m 13,8 C 15,4 C 22,2 km/h (4 Bft)
08.05.2013 13:30 19,4 C 71 % 1008,5 hPa 0,0 l/m 28,6 km/h (5 Bft) SW 235 0 min 0 W/m 14,0 C 14,1 C 28,6 km/h (5 Bft)
08.05.2013 13:45 19,8 C 71 % 1008,5 hPa 0,0 l/m 23,5 km/h (4 Bft) W-SW 240 0 min 0 W/m 14,4 C 15,3 C 23,5 km/h (4 Bft)
08.05.2013 14:00 20,9 C 69 % 1008,5 hPa 0,0 l/m 25,8 km/h (4 Bft) S-SW 205 0 min 0 W/m 15,0 C 16,5 C 25,8 km/h (4 Bft)
08.05.2013 14:15 21,3 C 65 % 1008,5 hPa 0,0 l/m 23,3 km/h (4 Bft) SW 215 0 min 0 W/m 14,4 C 17,4 C 23,3 km/h (4 Bft)
08.05.2013 14:30 21,3 C 63 % 1008,5 hPa 0,0 l/m 21,9 km/h (4 Bft) S-SW 210 0 min 0 W/m 14,0 C 17,6 C 21,9 km/h (4 Bft)
08.05.2013 14:45 21,5 C 62 % 1008,5 hPa 0,0 l/m 22,8 km/h (4 Bft) S-SW 205 0 min 0 W/m 13,9 C 17,7 C 22,8 km/h (4 Bft)
08.05.2013 14:59 20,8 C 61 % 1007,5 hPa 0,0 l/m 20,8 km/h (4 Bft) S-SW 200 0 min 0 W/m 13,0 C 17,1 C 20,8 km/h (4 Bft)
08.05.2013 15:15 21,2 C 61 % 1007,5 hPa 0,0 l/m 22,9 km/h (4 Bft) W-SW 255 0 min 0 W/m 13,4 C 17,3 C 22,9 km/h (4 Bft)
08.05.2013 15:30 20,8 C 61 % 1007,5 hPa 0,0 l/m 29,0 km/h (5 Bft) W 260 0 min 0 W/m 13,0 C 16,0 C 29,0 km/h (5 Bft)
08.05.2013 15:45 20,5 C 65 % 1007,5 hPa 0,0 l/m 22,9 km/h (4 Bft) W 260 0 min 0 W/m 13,7 C 16,4 C 22,9 km/h (4 Bft)
08.05.2013 15:59 20,8 C 59 % 1007,5 hPa 0,0 l/m 30,3 km/h (5 Bft) W-SW 245 0 min 0 W/m 12,5 C 15,8 C 30,3 km/h (5 Bft)
08.05.2013 16:15 21,8 C 60 % 1007,5 hPa 0,0 l/m 22,2 km/h (4 Bft) W-SW 240 0 min 0 W/m 13,7 C 18,2 C 22,2 km/h (4 Bft)
08.05.2013 16:30 21,7 C 57 % 1007,5 hPa 0,0 l/m 28,6 km/h (5 Bft) W 265 0 min 0 W/m 12,8 C 17,3 C 28,6 km/h (5 Bft)
08.05.2013 16:45 21,9 C 58 % 1007,5 hPa 0,0 l/m 26,9 km/h (4 Bft) SW 225 0 min 0 W/m 13,3 C 17,7 C 26,9 km/h (4 Bft)
08.05.2013 16:59 21,8 C 59 % 1007,5 hPa 0,0 l/m 25,6 km/h (4 Bft) W-SW 240 0 min 0 W/m 13,4 C 17,7 C 25,6 km/h (4 Bft)
08.05.2013 17:15 20,9 C 57 % 1007,5 hPa 0,0 l/m 36,8 km/h (5 Bft) W 260 0 min 0 W/m 12,1 C 15,3 C 36,8 km/h (5 Bft)
08.05.2013 17:30 20,3 C 62 % 1007,5 hPa 0,0 l/m 27,9 km/h (5 Bft) W 260 0 min 0 W/m 12,8 C 15,4 C 27,9 km/h (5 Bft)
08.05.2013 17:44 20,8 C 62 % 1007,5 hPa 0,0 l/m 23,7 km/h (4 Bft) W 260 0 min 0 W/m 13,2 C 16,7 C 23,7 km/h (4 Bft)
08.05.2013 17:59 20,8 C 60 % 1007,5 hPa 0,0 l/m 24,4 km/h (4 Bft) W-SW 250 0 min 0 W/m 12,7 C 16,6 C 24,4 km/h (4 Bft)
08.05.2013 18:15 20,8 C 61 % 1007,5 hPa 0,0 l/m 23,0 km/h (4 Bft) W-SW 255 0 min 0 W/m 13,0 C 16,8 C 23,0 km/h (4 Bft)
08.05.2013 18:30 20,5 C 61 % 1007,5 hPa 0,0 l/m 21,6 km/h (4 Bft) W-SW 250 0 min 0 W/m 12,7 C 16,6 C 21,6 km/h (4 Bft)
08.05.2013 18:44 20,5 C 61 % 1007,5 hPa 0,0 l/m 20,3 km/h (4 Bft) W-SW 240 0 min 0 W/m 12,7 C 16,8 C 20,3 km/h (4 Bft)
08.05.2013 18:59 20,4 C 62 % 1007,5 hPa 0,0 l/m 20,8 km/h (4 Bft) SW 235 0 min 0 W/m 12,9 C 16,6 C 20,8 km/h (4 Bft)
08.05.2013 19:15 20,2 C 62 % 1007,5 hPa 0,0 l/m 18,1 km/h (3 Bft) W-SW 255 0 min 0 W/m 12,7 C 16,8 C 18,1 km/h (3 Bft)
08.05.2013 19:30 20,0 C 62 % 1007,5 hPa 0,0 l/m 18,4 km/h (3 Bft) W-SW 250 0 min 0 W/m 12,5 C 16,5 C 18,4 km/h (3 Bft)
08.05.2013 19:44 20,0 C 63 % 1007,5 hPa 0,0 l/m 13,9 km/h (3 Bft) W-SW 240 0 min 0 W/m 12,7 C 17,5 C 13,9 km/h (3 Bft)
08.05.2013 19:59 19,7 C 64 % 1007,5 hPa 0,0 l/m 11,1 km/h (2 Bft) S-SW 205 0 min 0 W/m 12,7 C 18,0 C 11,1 km/h (2 Bft)
08.05.2013 20:15 19,4 C 65 % 1007,5 hPa 0,0 l/m 11,8 km/h (2 Bft) SW 230 0 min 0 W/m 12,6 C 17,4 C 11,8 km/h (2 Bft)
08.05.2013 20:29 17,7 C 71 % 1008,5 hPa 0,0 l/m 30,8 km/h (5 Bft) W-NW 290 0 min 0 W/m 12,4 C 11,4 C 30,8 km/h (5 Bft)
08.05.2013 20:44 16,6 C 75 % 1009,5 hPa 0,0 l/m 25,4 km/h (4 Bft) NW 305 0 min 0 W/m 12,1 C 10,7 C 25,4 km/h (4 Bft)
08.05.2013 20:59 16,1 C 80 % 1009,5 hPa 0,3 l/m 19,8 km/h (3 Bft) NW 310 0 min 0 W/m 12,6 C 11,2 C 19,8 km/h (3 Bft)
08.05.2013 21:15 15,7 C 83 % 1009,5 hPa 0,3 l/m 18,5 km/h (3 Bft) W 275 0 min 0 W/m 12,8 C 11,0 C 18,5 km/h (3 Bft)
08.05.2013 21:29 15,7 C 83 % 1009,5 hPa 0,6 l/m 14,2 km/h (3 Bft) W 265 0 min 0 W/m 12,8 C 12,3 C 14,2 km/h (3 Bft)
08.05.2013 21:44 15,8 C 83 % 1009,5 hPa 0,6 l/m 12,1 km/h (2 Bft) W 260 0 min 0 W/m 12,9 C 13,2 C 12,1 km/h (2 Bft)
08.05.2013 22:00 15,8 C 83 % 1009,5 hPa 0,0 l/m 6,8 km/h (2 Bft) W-SW 255 0 min 0 W/m 12,9 C 15,6 C 6,8 km/h (2 Bft)
08.05.2013 22:15 15,8 C 83 % 1009,5 hPa 0,0 l/m 7,9 km/h (2 Bft) S-SW 200 0 min 0 W/m 12,9 C 15,0 C 7,9 km/h (2 Bft)
08.05.2013 22:29 15,8 C 83 % 1009,5 hPa 0,0 l/m 12,6 km/h (3 Bft) S-SO 155 0 min 0 W/m 12,9 C 13,0 C 12,6 km/h (3 Bft)
08.05.2013 22:44 15,8 C 84 % 1008,5 hPa 0,0 l/m 14,8 km/h (3 Bft) S-SO 155 0 min 0 W/m 13,1 C 12,2 C 14,8 km/h (3 Bft)
08.05.2013 23:00 15,8 C 85 % 1008,5 hPa 0,0 l/m 13,6 km/h (3 Bft) S-SO 160 0 min 0 W/m 13,3 C 12,6 C 13,6 km/h (3 Bft)
08.05.2013 23:14 15,7 C 85 % 1008,5 hPa 0,0 l/m 12,4 km/h (2 Bft) S-SO 165 0 min 0 W/m 13,2 C 12,9 C 12,4 km/h (2 Bft)
08.05.2013 23:29 15,6 C 85 % 1008,5 hPa 0,0 l/m 12,7 km/h (3 Bft) S 175 0 min 0 W/m 13,1 C 12,7 C 12,7 km/h (3 Bft)
08.05.2013 23:44 15,6 C 85 % 1008,5 hPa 0,0 l/m 11,0 km/h (2 Bft) S 175 0 min 0 W/m 13,1 C 13,4 C 11,0 km/h (2 Bft)
_ Min-Zeit 00:14 16:30 14:59 - 01:14 - - - - 00:14 00:30 01:14
Minimum _ 13,0 C 57 % 1007,5 hPa - 1,0 km/h (0 Bft) - - - - 10,9 C 8,5 C 1,0 km/h (0 Bft)
_ Max-Zeit 16:45 08:30 00:00 01:14 17:15 - - 00:00 00:00 12:00 16:15 17:15
Maximum _ 21,9 C 91 % 1013,5 hPa 0,9 l/m 36,8 km/h
W (5 Bft)
- - 0 min 0 W/m 15,4 C 18,2 C 36,8 km/h
W (5 Bft)
Durchschnitt _ 16,6 C 79 % 1009,5 hPa #2,7 l/m 16,4 km/h (3 Bft) W-SW - #0 min. 0 W/m 12,7 C 13,2 C 16,4 km/h (3 Bft)
copyright by Holger Just